Time;durP1;ratioP1;P1;durP2;ratioP2;P2;SDS_P1;SDS_P2;PMS_P1;PMS_P2;Temp;Humidity;BMP_temperature;BMP_pressure;BME280_temperature;BME280_humidity;BME280_pressure;Samples;Min_cycle;Max_cycle;Signal;HPM_P1;HPM_P2
2023/02/14 00:07:50;;;;;;;0.20;0.10;;;6.90;99.90;;;;;;21145341;28;20398;-68
2023/02/14 00:17:55;;;;;;;0.20;0.10;;;7.00;99.90;;;;;;21144990;28;20475;-68
2023/02/14 00:28:00;;;;;;;0.20;0.10;;;7.00;99.90;;;;;;21159579;28;20415;-67
2023/02/14 00:38:06;;;;;;;0.20;0.10;;;7.10;99.90;;;;;;21140723;28;20897;-67
2023/02/14 00:48:11;;;;;;;0.20;0.10;;;7.00;99.90;;;;;;21158277;28;20398;-66
2023/02/14 00:58:15;;;;;;;0.20;0.10;;;6.90;99.90;;;;;;21157424;28;20731;-66
2023/02/14 01:08:20;;;;;;;0.20;0.10;;;6.70;99.90;;;;;;21156897;28;20425;-66
2023/02/14 01:18:24;;;;;;;0.20;0.10;;;6.50;99.90;;;;;;21156300;28;20463;-66
2023/02/14 01:28:29;;;;;;;0.20;0.10;;;6.30;99.90;;;;;;21120036;28;20801;-66
2023/02/14 01:38:33;;;;;;;0.20;0.10;;;6.30;99.90;;;;;;21135461;28;20460;-66
2023/02/14 01:48:38;;;;;;;0.20;0.10;;;6.30;99.90;;;;;;21134374;28;20465;-66
2023/02/14 01:58:47;;;;;;;0.20;0.00;;;6.10;99.90;;;;;;21134147;28;20448;-67
2023/02/14 02:08:59;;;;;;;0.20;0.10;;;6.40;99.90;;;;;;21133637;28;20407;-68
2023/02/14 02:19:26;;;;;;;0.20;0.10;;;6.70;99.90;;;;;;21150870;28;20450;-67
2023/02/14 02:30:08;;;;;;;0.20;0.05;;;6.80;99.90;;;;;;21149581;28;20407;-67
2023/02/14 02:40:28;;;;;;;0.20;0.10;;;6.80;99.90;;;;;;21130200;28;20414;-68
2023/02/14 03:01:10;;;;;;;0.20;0.10;;;7.10;99.90;;;;;;21146597;28;20754;-67
2023/02/14 03:11:14;;;;;;;0.20;0.10;;;6.80;99.90;;;;;;21147124;28;20396;-66
2023/02/14 03:21:28;;;;;;;0.20;0.10;;;6.70;99.90;;;;;;21128789;28;20411;-67
2023/02/14 03:31:39;;;;;;;0.20;0.07;;;6.40;99.90;;;;;;21146182;28;20467;-67
2023/02/14 03:41:49;;;;;;;0.20;0.10;;;6.40;99.90;;;;;;21110543;28;20408;-67
2023/02/14 03:51:56;;;;;;;0.20;0.10;;;5.90;99.90;;;;;;21145861;28;20528;-67
2023/02/14 04:02:06;;;;;;;0.20;0.00;;;5.80;99.90;;;;;;21161191;28;20540;-67
2023/02/14 04:12:11;;;;;;;0.20;0.10;;;5.50;99.90;;;;;;21161592;28;20416;-67
2023/02/14 04:22:16;;;;;;;0.20;0.10;;;5.20;99.90;;;;;;21160786;28;20406;-68
2023/02/14 04:32:22;;;;;;;0.20;0.10;;;5.40;99.90;;;;;;21141390;28;20398;-68
2023/02/14 04:42:27;;;;;;;0.20;0.10;;;5.60;99.90;;;;;;21158891;28;20730;-67
2023/02/14 04:52:31;;;;;;;0.20;0.10;;;5.80;99.90;;;;;;21123481;28;20452;-68
2023/02/14 05:02:37;;;;;;;0.20;0.10;;;5.90;99.90;;;;;;21138802;28;20460;-68
2023/02/14 05:12:41;;;;;;;0.20;0.10;;;5.90;99.90;;;;;;21155976;28;20439;-68
2023/02/14 05:22:46;;;;;;;0.20;0.10;;;5.60;99.90;;;;;;21137246;28;20490;-67
2023/02/14 05:32:51;;;;;;;0.20;0.10;;;5.60;99.90;;;;;;21154662;28;21013;-67
2023/02/14 05:42:56;;;;;;;0.20;0.10;;;5.90;99.90;;;;;;21135203;28;20464;-67
2023/02/14 05:53:01;;;;;;;0.20;0.10;;;5.60;99.90;;;;;;21133313;28;20496;-68
2023/02/14 06:03:07;;;;;;;0.20;0.10;;;5.60;99.90;;;;;;21150904;28;20477;-67
2023/02/14 06:13:10;;;;;;;0.20;0.10;;;5.40;99.90;;;;;;21151103;28;20410;-66
2023/02/14 06:23:16;;;;;;;0.20;0.10;;;5.40;99.90;;;;;;21130776;28;20820;-68
2023/02/14 06:33:19;;;;;;;0.20;0.10;;;5.50;99.90;;;;;;21129420;28;20535;-67
2023/02/14 06:43:24;;;;;;;0.20;0.00;;;5.40;99.90;;;;;;21148021;28;20532;-67
2023/02/14 06:53:28;;;;;;;0.20;0.10;;;5.30;99.90;;;;;;21127068;28;20527;-74
2023/02/14 07:03:34;;;;;;;0.20;0.10;;;5.50;99.90;;;;;;21122680;28;20498;-68
2023/02/14 07:13:37;;;;;;;0.20;0.10;;;5.70;99.90;;;;;;21144239;28;20449;-68
2023/02/14 07:23:45;;;;;;;0.20;0.10;;;5.80;99.90;;;;;;21144487;28;20914;-68
2023/02/14 07:33:49;;;;;;;0.20;0.00;;;6.00;99.90;;;;;;21126222;28;20468;-68
2023/02/14 07:43:54;;;;;;;0.20;0.10;;;6.30;99.90;;;;;;21125320;28;20464;-67
2023/02/14 07:53:58;;;;;;;0.20;0.00;;;6.60;99.90;;;;;;21125134;28;20399;-68
2023/02/14 08:04:03;;;;;;;0.40;0.40;;;7.30;99.90;;;;;;21143330;28;20757;-69
2023/02/14 08:14:07;;;;;;;0.20;0.10;;;8.00;99.90;;;;;;21123389;28;20399;-67
2023/02/14 08:24:12;;;;;;;0.20;0.07;;;9.20;99.90;;;;;;21142233;28;20411;-67
2023/02/14 08:34:17;;;;;;;0.20;0.10;;;9.80;99.90;;;;;;21142016;28;20418;-67
2023/02/14 08:44:23;;;;;;;0.20;0.10;;;10.10;99.90;;;;;;21129632;28;20398;-66
2023/02/14 08:54:26;;;;;;;0.20;0.00;;;10.30;99.90;;;;;;21156103;28;20820;-67
2023/02/14 09:04:34;;;;;;;0.20;0.00;;;10.60;99.90;;;;;;21155659;28;20837;-68
2023/02/14 09:14:40;;;;;;;0.20;0.10;;;11.10;99.90;;;;;;21136271;28;20394;-69
2023/02/14 09:24:45;;;;;;;0.20;0.10;;;11.10;99.90;;;;;;21151426;28;20442;-67
2023/02/14 09:45:14;;;;;;;0.20;0.10;;;11.40;99.90;;;;;;21127299;28;20498;-67
2023/02/14 09:55:19;;;;;;;0.20;0.00;;;11.50;99.90;;;;;;21109678;28;20468;-68
2023/02/14 10:05:27;;;;;;;0.20;0.00;;;11.80;99.90;;;;;;21101134;28;20401;-69
2023/02/14 10:15:34;;;;;;;0.20;0.10;;;11.80;99.90;;;;;;21088562;28;20440;-68
2023/02/14 10:25:45;;;;;;;0.20;0.10;;;12.20;99.90;;;;;;21103140;28;20748;-68
2023/02/14 10:35:51;;;;;;;1.20;1.20;;;12.70;99.90;;;;;;21086360;28;20461;-68
2023/02/14 10:46:07;;;;;;;0.20;0.10;;;13.10;99.90;;;;;;21084863;28;20392;-68
2023/02/14 10:56:18;;;;;;;0.20;0.15;;;13.20;99.90;;;;;;21083804;28;20487;-67
2023/02/14 11:06:24;;;;;;;0.20;0.20;;;13.90;99.90;;;;;;21100770;28;20867;-68
2023/02/14 11:16:33;;;;;;;0.20;0.10;;;14.60;99.90;;;;;;21143896;28;20586;-69
2023/02/14 11:26:38;;;;;;;0.20;0.10;;;15.40;99.90;;;;;;21109148;28;20395;-68
2023/02/14 11:36:42;;;;;;;0.20;0.00;;;16.50;99.90;;;;;;21045644;28;20458;-68
2023/02/14 11:46:48;;;;;;;0.20;0.10;;;16.30;99.90;;;;;;21087342;28;20827;-68
2023/02/14 11:57:01;;;;;;;0.20;0.00;;;16.20;99.90;;;;;;21142905;28;20419;-69
2023/02/14 12:07:19;;;;;;;0.20;0.00;;;16.70;99.90;;;;;;21142585;28;21010;-69
2023/02/14 12:17:31;;;;;;;0.20;0.10;;;17.20;99.90;;;;;;21127221;28;20442;-68
2023/02/14 12:27:47;;;;;;;0.20;0.00;;;16.60;99.90;;;;;;21119094;28;20400;-69
2023/02/14 12:38:03;;;;;;;0.20;0.10;;;17.80;99.90;;;;;;21071570;28;20517;-69
2023/02/14 12:48:19;;;;;;;0.20;0.10;;;18.40;99.90;;;;;;21126223;28;20493;-66
2023/02/14 12:58:36;;;;;;;0.20;0.00;;;17.90;99.90;;;;;;21138193;28;21042;-68
2023/02/14 13:09:00;;;;;;;0.20;0.00;;;18.30;99.90;;;;;;21136823;28;20398;-67
2023/02/14 13:19:14;;;;;;;0.20;0.00;;;19.00;99.90;;;;;;21153591;28;20438;-68
2023/02/14 13:29:23;;;;;;;0.20;0.10;;;19.00;99.90;;;;;;21115890;28;20420;-68
2023/02/14 13:39:32;;;;;;;0.20;0.05;;;18.40;99.90;;;;;;21044464;28;20459;-69
2023/02/14 13:49:48;;;;;;;0.20;0.10;;;18.40;99.90;;;;;;21137607;28;20775;-69
2023/02/14 14:00:26;;;;;;;0.20;0.10;;;18.30;99.90;;;;;;21151095;28;20421;-69
2023/02/14 14:10:44;;;;;;;0.20;0.10;;;18.40;99.90;;;;;;21131578;28;20395;-68
2023/02/14 14:20:49;;;;;;;0.20;0.00;;;19.40;99.90;;;;;;21144478;28;20406;-67
2023/02/14 14:30:54;;;;;;;0.20;0.00;;;21.00;99.90;;;;;;21094567;28;20397;-68
2023/02/14 14:41:00;;;;;;;0.20;0.00;;;20.40;99.90;;;;;;21058883;28;20461;-68
2023/02/14 14:51:07;;;;;;;0.20;0.00;;;20.70;99.90;;;;;;21140597;28;20411;-69
2023/02/14 15:01:20;;;;;;;0.20;0.00;;;20.20;99.90;;;;;;21142422;28;20414;-68
2023/02/14 15:21:52;;;;;;;0.20;0.10;;;19.50;99.90;;;;;;21140392;28;21351;-71
2023/02/14 15:31:59;;;;;;;0.20;0.10;;;18.70;99.90;;;;;;21121475;28;20456;-68
2023/02/14 15:42:06;;;;;;;0.20;0.10;;;18.30;99.90;;;;;;21120115;28;20425;-66
2023/02/14 15:52:15;;;;;;;0.20;0.10;;;17.10;99.90;;;;;;21112474;28;20406;-67
2023/02/14 16:02:28;;;;;;;0.20;0.10;;;15.60;99.90;;;;;;21158733;28;20505;-69
2023/02/14 16:12:36;;;;;;;0.20;0.10;;;16.40;99.90;;;;;;21140992;28;20735;-67
2023/02/14 16:22:39;;;;;;;0.20;0.10;;;16.60;99.90;;;;;;21157016;28;20406;-69
2023/02/14 16:32:52;;;;;;;0.20;0.10;;;14.90;99.90;;;;;;21091351;28;20454;-68
2023/02/14 16:42:57;;;;;;;0.20;0.10;;;13.80;99.90;;;;;;21066257;28;20421;-65
2023/02/14 16:53:03;;;;;;;0.20;0.10;;;13.30;99.90;;;;;;21156383;28;20426;-68
2023/02/14 17:03:09;;;;;;;0.20;0.05;;;12.70;99.90;;;;;;21136374;28;20410;-69
2023/02/14 17:13:18;;;;;;;0.20;0.10;;;12.50;99.90;;;;;;21117819;28;20398;-65
2023/02/14 17:23:23;;;;;;;0.20;0.00;;;12.40;99.90;;;;;;21161401;27;20410;-68
2023/02/14 17:33:29;;;;;;;0.20;0.10;;;12.30;99.90;;;;;;21133308;28;20510;-66
2023/02/14 17:43:34;;;;;;;0.20;0.10;;;12.20;99.90;;;;;;21133228;28;20420;-68
2023/02/14 17:53:40;;;;;;;0.20;0.10;;;12.00;99.90;;;;;;21131730;28;20744;-67
2023/02/14 18:03:44;;;;;;;0.20;0.10;;;12.00;99.90;;;;;;21150164;28;20505;-68
2023/02/14 18:13:49;;;;;;;0.20;0.10;;;11.40;99.90;;;;;;21126882;28;20431;-71
2023/02/14 18:23:53;;;;;;;0.20;0.03;;;10.50;99.90;;;;;;21047389;28;20940;-69
2023/02/14 18:34:00;;;;;;;0.20;0.10;;;10.10;99.90;;;;;;21063883;28;20405;-68
2023/02/14 18:44:05;;;;;;;0.20;0.10;;;9.90;99.90;;;;;;21051533;28;20460;-69
2023/02/14 18:54:10;;;;;;;0.20;0.10;;;9.60;99.90;;;;;;21146835;28;20869;-68
2023/02/14 19:04:16;;;;;;;0.20;0.10;;;9.40;99.90;;;;;;21110891;28;20414;-67
2023/02/14 19:14:22;;;;;;;0.20;0.10;;;9.20;99.90;;;;;;21146103;28;20969;-68
2023/02/14 19:24:26;;;;;;;0.20;0.00;;;9.00;99.90;;;;;;21125789;28;20429;-68
2023/02/14 19:34:32;;;;;;;0.20;0.10;;;9.10;99.90;;;;;;21145114;28;20406;-70
2023/02/14 19:44:35;;;;;;;0.20;0.10;;;9.00;99.90;;;;;;21126169;28;20395;-68
2023/02/14 19:54:41;;;;;;;0.20;0.10;;;8.60;99.90;;;;;;21126551;28;20564;-68
2023/02/14 20:04:45;;;;;;;0.20;0.10;;;8.50;99.90;;;;;;21126009;28;20410;-68
2023/02/14 20:14:52;;;;;;;0.20;0.10;;;8.50;99.90;;;;;;21143199;28;20452;-68
2023/02/14 20:24:56;;;;;;;0.20;0.10;;;8.30;99.90;;;;;;21142594;28;20440;-70
2023/02/14 20:35:02;;;;;;;0.20;0.10;;;8.20;99.90;;;;;;21090416;28;20412;-68
2023/02/14 20:45:06;;;;;;;0.20;0.10;;;8.20;99.90;;;;;;21070069;28;20418;-68
2023/02/14 20:55:12;;;;;;;0.20;0.10;;;8.20;99.90;;;;;;21071781;28;20859;-68
2023/02/14 21:05:17;;;;;;;0.20;0.10;;;7.90;99.90;;;;;;21053904;28;20943;-70
2023/02/14 21:15:22;;;;;;;0.20;0.10;;;7.80;99.90;;;;;;21066308;28;20982;-70
2023/02/14 21:25:26;;;;;;;0.20;0.10;;;7.70;99.90;;;;;;21067642;28;20756;-69
2023/02/14 21:35:31;;;;;;;0.20;0.10;;;7.80;99.90;;;;;;21068106;28;20404;-68
2023/02/14 21:45:53;;;;;;;0.20;0.10;;;7.90;99.90;;;;;;21066874;28;20408;-69
2023/02/14 21:56:06;;;;;;;0.20;0.10;;;7.80;99.90;;;;;;21068012;28;20408;-70
2023/02/14 22:06:11;;;;;;;0.20;0.10;;;8.00;99.90;;;;;;21064936;28;20408;-71
2023/02/14 22:16:19;;;;;;;0.20;0.10;;;8.40;99.90;;;;;;21063092;28;20745;-70
2023/02/14 22:26:25;;;;;;;0.20;0.10;;;8.40;99.90;;;;;;21066522;28;20489;-70
2023/02/14 22:36:30;;;;;;;0.20;0.10;;;8.10;99.90;;;;;;21129972;28;20746;-66
2023/02/14 22:46:36;;;;;;;0.20;0.10;;;8.20;99.90;;;;;;21129710;28;20833;-68
2023/02/14 22:56:43;;;;;;;0.20;0.10;;;7.70;99.90;;;;;;21149589;28;20765;-67
2023/02/14 23:06:47;;;;;;;0.20;0.10;;;7.60;99.90;;;;;;21129628;28;20477;-67
2023/02/14 23:27:24;;;;;;;0.20;0.10;;;7.20;99.90;;;;;;20998362;28;20500;-68
2023/02/14 23:37:29;;;;;;;0.20;0.10;;;6.90;99.90;;;;;;21062993;28;20427;-68
2023/02/14 23:47:33;;;;;;;0.20;0.10;;;6.80;99.90;;;;;;21114887;28;20411;-67
2023/02/14 23:57:38;;;;;;;0.20;0.10;;;7.10;99.90;;;;;;21146087;28;20406;-67
